createdAt,value
2022-10-08T00:00:19.414Z,101235.16
2022-10-08T00:02:46.174Z,101229.34
2022-10-08T00:05:13.106Z,101230.25
2022-10-08T00:07:42.077Z,101225.78
2022-10-08T00:10:08.931Z,101238.13
2022-10-08T00:12:35.637Z,101224.53
2022-10-08T00:15:02.760Z,101216.19
2022-10-08T00:17:29.578Z,101217.41
2022-10-08T00:19:57.402Z,101214.44
2022-10-08T00:22:25.173Z,101217.53
2022-10-08T00:24:53.487Z,101211.63
2022-10-08T00:27:23.942Z,101202.50
2022-10-08T00:29:52.299Z,101199.44
2022-10-08T00:32:19.892Z,101187.66
2022-10-08T00:34:47.699Z,101188.06
2022-10-08T00:37:15.371Z,101187.13
2022-10-08T00:39:42.125Z,101181.78
2022-10-08T00:42:11.889Z,101182.38
2022-10-08T00:44:51.565Z,101178.94
2022-10-08T00:47:39.189Z,101180.69
2022-10-08T00:50:11.697Z,101175.75
2022-10-08T00:52:43.899Z,101167.75
2022-10-08T00:55:13.029Z,101167.75
2022-10-08T00:57:40.356Z,101159.34
2022-10-08T01:00:11.362Z,101156.94
2022-10-08T01:02:38.139Z,101152.41
2022-10-08T01:05:05.984Z,101146.97
2022-10-08T01:07:48.539Z,101152.78
2022-10-08T01:10:38.249Z,101152.16
2022-10-08T01:13:25.210Z,101144.22
2022-10-08T01:16:08.436Z,101136.28
2022-10-08T01:19:01.448Z,101135.44
2022-10-08T01:21:39.788Z,101131.44
2022-10-08T01:24:49.892Z,101129.59
2022-10-08T01:27:25.182Z,101130.97
2022-10-08T01:29:52.624Z,101125.50
2022-10-08T01:32:27.361Z,101122.28
2022-10-08T01:35:00.679Z,101115.97
2022-10-08T01:37:31.945Z,101116.81
2022-10-08T01:40:02.848Z,101117.59
2022-10-08T01:42:32.274Z,101117.69
2022-10-08T01:45:03.702Z,101113.72
2022-10-08T01:47:31.074Z,101116.34
2022-10-08T01:50:12.912Z,101109.75
2022-10-08T01:52:48.810Z,101103.91
2022-10-08T01:55:24.579Z,101099.44
2022-10-08T01:57:53.103Z,101092.16
2022-10-08T02:00:20.771Z,101088.53
2022-10-08T02:02:47.645Z,101081.84
2022-10-08T02:05:14.516Z,101087.03
2022-10-08T02:07:42.924Z,101077.00
2022-10-08T02:10:14.401Z,101081.22
2022-10-08T02:12:41.920Z,101071.81
2022-10-08T02:15:19.676Z,101076.81
2022-10-08T02:18:10.885Z,101077.38
2022-10-08T02:20:42.481Z,101070.19
2022-10-08T02:23:23.314Z,101067.97
2022-10-08T02:25:54.908Z,101072.31
2022-10-08T02:28:41.222Z,101067.44
2022-10-08T02:31:29.020Z,101068.63
2022-10-08T02:34:12.657Z,101053.84
2022-10-08T02:36:44.024Z,101044.25
2022-10-08T02:39:12.663Z,101018.00
2022-10-08T02:41:46.976Z,100974.00
2022-10-08T02:44:18.595Z,100952.69
2022-10-08T02:46:49.861Z,100923.03
2022-10-08T02:49:24.312Z,100893.94
2022-10-08T02:51:53.430Z,100884.22
2022-10-08T02:54:22.742Z,100886.25
2022-10-08T02:57:09.419Z,100862.63
2022-10-08T02:59:36.902Z,100838.53
2022-10-08T03:02:05.457Z,100822.94
2022-10-08T03:04:46.671Z,100820.34
2022-10-08T03:07:15.661Z,100827.22
2022-10-08T03:09:47.582Z,100817.34
2022-10-08T03:12:14.347Z,100806.41
2022-10-08T03:14:45.660Z,100779.69
2022-10-08T03:17:16.109Z,100765.69
2022-10-08T03:19:43.611Z,100744.63
2022-10-08T03:22:10.965Z,100735.72
2022-10-08T03:24:37.711Z,100717.66
2022-10-08T03:27:04.689Z,100704.41
2022-10-08T03:29:31.404Z,100692.03
2022-10-08T03:31:58.207Z,100698.44
2022-10-08T03:34:26.047Z,100684.63
2022-10-08T03:36:52.711Z,100668.34
2022-10-08T03:39:19.459Z,100669.59
2022-10-08T03:41:46.137Z,100650.53
2022-10-08T03:44:13.079Z,100660.56
2022-10-08T03:46:39.708Z,100664.19
2022-10-08T03:49:06.524Z,100652.78
2022-10-08T03:51:33.358Z,100638.41
2022-10-08T03:54:00.111Z,100652.41
2022-10-08T03:56:27.186Z,100637.69
2022-10-08T03:58:59.675Z,100625.41
2022-10-08T04:01:27.812Z,100613.66
2022-10-08T04:03:54.705Z,100603.38
2022-10-08T04:06:22.177Z,100590.22
2022-10-08T04:08:48.843Z,100578.22
2022-10-08T04:11:17.727Z,100560.63
2022-10-08T04:13:44.416Z,100582.25
2022-10-08T04:16:13.645Z,100563.03
2022-10-08T04:18:41.202Z,100558.34
2022-10-08T04:21:10.917Z,100556.38
2022-10-08T04:23:39.569Z,100541.66
2022-10-08T04:26:07.302Z,100544.63
2022-10-08T04:28:38.594Z,100530.16
2022-10-08T04:31:12.940Z,100530.06
2022-10-08T04:33:39.952Z,100530.56
2022-10-08T04:36:18.100Z,100523.88
2022-10-08T04:38:45.529Z,100517.47
2022-10-08T04:41:15.313Z,100510.44
2022-10-08T04:43:44.044Z,100510.16
2022-10-08T04:46:15.178Z,100499.88
2022-10-08T04:48:46.934Z,100490.72
2022-10-08T04:51:13.638Z,100485.09
2022-10-08T04:53:40.332Z,100478.81
2022-10-08T04:56:16.985Z,100481.06
2022-10-08T04:58:44.844Z,100483.03
2022-10-08T05:01:14.014Z,100465.81
2022-10-08T05:03:43.529Z,100457.13
2022-10-08T05:06:10.746Z,100447.19
2022-10-08T05:08:37.594Z,100437.47
2022-10-08T05:11:04.349Z,100434.75
2022-10-08T05:13:31.068Z,100429.94
2022-10-08T05:16:06.055Z,100471.94
2022-10-08T05:18:33.863Z,100459.63
2022-10-08T05:21:14.640Z,100465.41
2022-10-08T05:23:45.128Z,100464.50
2022-10-08T05:26:17.372Z,100463.94
2022-10-08T05:28:47.235Z,100431.03
2022-10-08T05:31:17.426Z,100437.91
2022-10-08T05:33:44.448Z,100438.94
2022-10-08T05:36:18.006Z,100432.00
2022-10-08T05:38:44.745Z,100428.69
2022-10-08T05:41:13.005Z,100415.38
2022-10-08T05:43:40.854Z,100424.81
2022-10-08T05:46:07.816Z,100428.84
2022-10-08T05:48:34.978Z,100403.75
2022-10-08T05:51:16.295Z,100407.84
2022-10-08T05:53:53.427Z,100410.84
2022-10-08T05:56:22.190Z,100395.69
2022-10-08T05:58:49.664Z,100397.97
2022-10-08T06:01:22.165Z,100399.38
2022-10-08T06:04:08.700Z,100396.19
2022-10-08T06:06:40.899Z,100394.25
2022-10-08T06:09:08.616Z,100399.22
2022-10-08T06:11:37.015Z,100398.50
2022-10-08T06:14:06.108Z,100384.09
2022-10-08T06:16:33.578Z,100386.97
2022-10-08T06:19:02.053Z,100390.78
2022-10-08T06:21:29.753Z,100381.09
2022-10-08T06:24:01.862Z,100377.19
2022-10-08T06:26:35.624Z,100384.28
2022-10-08T06:29:05.640Z,100387.94
2022-10-08T06:31:34.047Z,100377.56
2022-10-08T06:34:02.483Z,100377.53
2022-10-08T06:36:29.266Z,100376.03
2022-10-08T06:39:01.733Z,100380.72
2022-10-08T06:41:35.894Z,100377.75
2022-10-08T06:44:04.416Z,100383.75
2022-10-08T06:46:32.586Z,100371.03
2022-10-08T06:49:01.267Z,100372.09
2022-10-08T06:51:28.881Z,100363.69
2022-10-08T06:54:01.452Z,100357.00
2022-10-08T06:56:32.580Z,100363.59
2022-10-08T06:58:59.549Z,100366.69
2022-10-08T07:01:32.559Z,100377.28
2022-10-08T07:04:00.699Z,100369.97
2022-10-08T07:06:28.219Z,100375.56
2022-10-08T07:08:57.351Z,100378.66
2022-10-08T07:11:24.950Z,100379.38
2022-10-08T07:13:51.758Z,100394.13
2022-10-08T07:16:23.668Z,100406.69
2022-10-08T07:18:52.331Z,100401.47
2022-10-08T07:21:21.405Z,100406.06
2022-10-08T07:23:48.578Z,100426.94
2022-10-08T07:26:20.975Z,100428.31
2022-10-08T07:28:56.760Z,100427.13
2022-10-08T07:31:29.856Z,100421.84
2022-10-08T07:33:57.818Z,100427.22
2022-10-08T07:36:25.785Z,100425.88
2022-10-08T07:38:56.962Z,100423.94
2022-10-08T07:41:23.889Z,100439.56
2022-10-08T07:43:52.583Z,100450.53
2022-10-08T07:46:19.842Z,100491.84
2022-10-08T07:48:46.904Z,100501.56
2022-10-08T07:51:18.691Z,100504.84
2022-10-08T07:53:45.656Z,100501.06
2022-10-08T07:56:14.834Z,100497.97
2022-10-08T07:58:41.807Z,100500.91
2022-10-08T08:01:12.054Z,100511.63
2022-10-08T08:03:38.843Z,100534.09
2022-10-08T08:06:09.294Z,100534.22
2022-10-08T08:08:37.844Z,100530.44
2022-10-08T08:11:06.892Z,100545.38
2022-10-08T08:13:37.476Z,100552.50
2022-10-08T08:16:09.820Z,100551.59
2022-10-08T08:18:39.312Z,100546.97
2022-10-08T08:21:12.090Z,100557.06
2022-10-08T08:23:50.387Z,100558.94
2022-10-08T08:26:18.175Z,100571.56
2022-10-08T08:28:45.119Z,100581.31
2022-10-08T08:31:18.656Z,100582.06
2022-10-08T08:33:51.083Z,100574.78
2022-10-08T08:36:19.096Z,100577.38
2022-10-08T08:38:46.762Z,100588.88
2022-10-08T08:41:55.709Z,100596.28
2022-10-08T08:44:25.314Z,100606.38
2022-10-08T08:46:57.067Z,100618.25
2022-10-08T08:49:42.368Z,100621.75
2022-10-08T08:52:12.468Z,100617.03
2022-10-08T08:54:39.166Z,100624.13
2022-10-08T08:57:34.179Z,100632.19
2022-10-08T09:00:05.929Z,100632.59
2022-10-08T09:02:40.671Z,100613.09
2022-10-08T09:05:13.049Z,100614.09
2022-10-08T09:08:18.759Z,100616.19
2022-10-08T09:10:57.032Z,100607.91
2022-10-08T09:13:50.882Z,100607.66
2022-10-08T09:16:18.373Z,100610.53
2022-10-08T09:18:48.038Z,100619.56
2022-10-08T09:21:15.325Z,100618.44
2022-10-08T09:23:42.458Z,100612.13
2022-10-08T09:26:22.461Z,100617.09
2022-10-08T09:28:54.738Z,100612.63
2022-10-08T09:31:36.596Z,100619.41
2022-10-08T09:34:18.593Z,100620.16
2022-10-08T09:37:00.502Z,100627.94
2022-10-08T09:39:31.020Z,100646.25
2022-10-08T09:42:17.543Z,100645.38
2022-10-08T09:44:52.414Z,100635.94
2022-10-08T09:47:21.854Z,100645.72
2022-10-08T09:50:13.306Z,100657.88
2022-10-08T09:52:40.967Z,100659.94
2022-10-08T09:55:20.044Z,100676.59
2022-10-08T09:58:00.366Z,100683.53
2022-10-08T10:00:37.272Z,100691.69
2022-10-08T10:03:07.165Z,100699.00
2022-10-08T10:05:36.591Z,100689.00
2022-10-08T10:08:04.430Z,100713.50
2022-10-08T10:10:45.632Z,100733.41
2022-10-08T10:13:19.235Z,100743.63
2022-10-08T10:15:58.904Z,100760.94
2022-10-08T10:19:04.671Z,100774.88
2022-10-08T10:21:44.056Z,100797.56
2022-10-08T10:24:22.505Z,100803.56
2022-10-08T10:26:51.818Z,100816.94
2022-10-08T10:29:25.245Z,100829.94
2022-10-08T10:32:02.723Z,100848.47
2022-10-08T10:34:32.177Z,100861.69
2022-10-08T10:37:02.192Z,100873.28
2022-10-08T10:39:28.820Z,100881.72
2022-10-08T10:42:06.427Z,100889.63
2022-10-08T10:44:49.767Z,100906.84
2022-10-08T10:47:20.915Z,100933.38
2022-10-08T10:49:48.059Z,100957.50
2022-10-08T10:52:41.610Z,100969.47
2022-10-08T10:55:31.480Z,100981.06
2022-10-08T10:58:36.821Z,101024.50
2022-10-08T11:01:25.505Z,101069.75
2022-10-08T11:04:18.025Z,101084.38
2022-10-08T11:06:44.582Z,101094.63
2022-10-08T11:09:36.355Z,101100.84
2022-10-08T11:12:05.993Z,101125.63
2022-10-08T11:14:35.709Z,101139.44
2022-10-08T11:17:36.166Z,101160.31
2022-10-08T11:20:17.999Z,101154.88
2022-10-08T11:22:57.612Z,101145.69
2022-10-08T11:26:09.940Z,101133.75
2022-10-08T11:28:30.109Z,101129.00
2022-10-08T11:31:17.553Z,101126.22
2022-10-08T11:33:46.014Z,101131.53
2022-10-08T11:36:31.944Z,101125.63
2022-10-08T11:39:24.638Z,101117.00
2022-10-08T11:41:59.822Z,101114.06
2022-10-08T11:44:27.213Z,101108.78
2022-10-08T11:46:54.011Z,101098.34
2022-10-08T11:49:20.655Z,101086.97
2022-10-08T11:51:52.299Z,101075.31
2022-10-08T11:54:38.407Z,101077.19
2022-10-08T11:57:55.546Z,101082.41
2022-10-08T12:00:37.306Z,101084.00
2022-10-08T12:03:07.235Z,101099.84
2022-10-08T12:05:40.405Z,101100.72
2022-10-08T12:08:07.276Z,101113.66
2022-10-08T12:10:36.866Z,101105.97
2022-10-08T12:13:16.758Z,101108.94
2022-10-08T12:15:44.468Z,101105.97
2022-10-08T12:18:11.083Z,101127.53
2022-10-08T12:20:39.698Z,101152.53
2022-10-08T12:23:34.407Z,101174.81
2022-10-08T12:26:00.994Z,101206.59
2022-10-08T12:28:32.388Z,101230.53
2022-10-08T12:31:01.854Z,101246.38
2022-10-08T12:33:30.583Z,101272.50
2022-10-08T12:36:20.954Z,101283.19
2022-10-08T12:39:06.091Z,101313.66
2022-10-08T12:41:40.377Z,101340.63
2022-10-08T12:44:31.827Z,101352.25
2022-10-08T12:47:13.680Z,101365.50
2022-10-08T12:49:43.258Z,101383.69
2022-10-08T12:52:15.825Z,101392.38
2022-10-08T12:54:54.915Z,101395.94
2022-10-08T12:57:31.377Z,101410.53
2022-10-08T12:59:59.464Z,101415.84
2022-10-08T13:02:39.195Z,101415.97
2022-10-08T13:05:23.118Z,101423.53
2022-10-08T13:07:50.195Z,101420.63
2022-10-08T13:10:20.836Z,101422.56
2022-10-08T13:13:27.779Z,101429.56
2022-10-08T13:16:02.706Z,101437.81
2022-10-08T13:18:30.886Z,101437.00
2022-10-08T13:21:03.436Z,101442.09
2022-10-08T13:23:43.163Z,101459.09
2022-10-08T13:26:37.725Z,101467.59
2022-10-08T13:29:22.774Z,101472.59
2022-10-08T13:32:13.739Z,101485.84
2022-10-08T13:34:40.359Z,101490.28
2022-10-08T13:37:13.111Z,101510.13
2022-10-08T13:39:50.823Z,101521.31
2022-10-08T13:42:19.560Z,101535.59
2022-10-08T13:44:46.543Z,101542.00
2022-10-08T13:47:18.849Z,101526.13
2022-10-08T13:49:46.437Z,101522.72
2022-10-08T13:52:21.535Z,101516.25
2022-10-08T13:54:49.777Z,101504.81
2022-10-08T13:57:16.615Z,101504.75
2022-10-08T13:59:43.291Z,101495.63
2022-10-08T14:02:14.462Z,101503.53
2022-10-08T14:04:41.237Z,101494.19
2022-10-08T14:07:28.116Z,101501.56
2022-10-08T14:09:57.431Z,101503.00
2022-10-08T14:12:28.769Z,101500.78
2022-10-08T14:14:56.183Z,101508.75
2022-10-08T14:17:23.150Z,101504.59
2022-10-08T14:19:50.263Z,101507.81
2022-10-08T14:22:17.442Z,101509.72
2022-10-08T14:24:44.142Z,101514.28
2022-10-08T14:27:11.044Z,101526.63
2022-10-08T14:29:37.811Z,101536.41
2022-10-08T14:32:05.737Z,101537.34
2022-10-08T14:34:32.559Z,101539.47
2022-10-08T14:36:59.679Z,101534.56
2022-10-08T14:39:26.890Z,101553.28
2022-10-08T14:41:54.287Z,101547.34
2022-10-08T14:44:22.606Z,101553.38
2022-10-08T14:46:52.814Z,101565.72
2022-10-08T14:49:20.431Z,101558.72
2022-10-08T14:51:47.715Z,101573.38
2022-10-08T14:54:14.475Z,101575.44
2022-10-08T14:56:42.836Z,101584.41
2022-10-08T14:59:10.668Z,101599.81
2022-10-08T15:01:37.496Z,101609.75
2022-10-08T15:04:05.429Z,101606.91
2022-10-08T15:06:33.473Z,101613.78
2022-10-08T15:09:00.276Z,101621.22
2022-10-08T15:11:27.056Z,101609.34
2022-10-08T15:13:53.971Z,101622.47
2022-10-08T15:16:20.755Z,101624.53
2022-10-08T15:18:47.755Z,101618.09
2022-10-08T15:21:14.644Z,101612.75
2022-10-08T15:23:41.696Z,101620.94
2022-10-08T15:26:12.459Z,101630.09
2022-10-08T15:28:39.364Z,101633.81
2022-10-08T15:31:14.506Z,101632.25
2022-10-08T15:33:43.240Z,101641.41
2022-10-08T15:36:16.686Z,101643.59
2022-10-08T15:38:43.452Z,101651.03
2022-10-08T15:41:10.623Z,101646.31
2022-10-08T15:43:37.334Z,101654.09
2022-10-08T15:46:12.683Z,101663.91
2022-10-08T15:48:39.482Z,101672.28
2022-10-08T15:51:07.455Z,101681.75
2022-10-08T15:53:35.637Z,101687.97
2022-10-08T15:56:03.167Z,101699.44
2022-10-08T15:58:49.762Z,101709.81
2022-10-08T16:01:20.239Z,101718.09
2022-10-08T16:03:49.241Z,101725.75
2022-10-08T16:06:19.327Z,101741.31
2022-10-08T16:08:46.425Z,101756.50
2022-10-08T16:11:15.679Z,101758.47
2022-10-08T16:13:49.543Z,101762.28
2022-10-08T16:16:17.899Z,101768.91
2022-10-08T16:18:46.977Z,101761.22
2022-10-08T16:21:14.235Z,101767.81
2022-10-08T16:23:40.909Z,101775.72
2022-10-08T16:26:10.674Z,101778.44
2022-10-08T16:28:39.840Z,101768.03
2022-10-08T16:31:08.501Z,101780.28
2022-10-08T16:33:35.259Z,101786.38
2022-10-08T16:36:04.881Z,101779.59
2022-10-08T16:38:34.627Z,101780.09
2022-10-08T16:41:18.291Z,101781.31
2022-10-08T16:43:49.150Z,101776.78
2022-10-08T16:46:35.117Z,101774.31
2022-10-08T16:49:25.324Z,101786.09
2022-10-08T16:51:57.536Z,101775.22
2022-10-08T16:54:24.415Z,101779.97
2022-10-08T16:56:51.483Z,101788.69
2022-10-08T16:59:21.191Z,101783.25
2022-10-08T17:01:51.241Z,101791.16
2022-10-08T17:04:19.160Z,101771.72
2022-10-08T17:06:46.639Z,101787.25
2022-10-08T17:09:13.810Z,101783.56
2022-10-08T17:11:41.845Z,101780.31
2022-10-08T17:14:10.421Z,101779.41
2022-10-08T17:16:37.854Z,101775.59
2022-10-08T17:19:05.007Z,101770.69
2022-10-08T17:21:32.749Z,101772.97
2022-10-08T17:24:01.839Z,101761.41
2022-10-08T17:26:28.810Z,101764.06
2022-10-08T17:28:55.700Z,101768.38
2022-10-08T17:31:25.744Z,101776.03
2022-10-08T17:33:53.193Z,101761.13
2022-10-08T17:36:22.842Z,101761.72
2022-10-08T17:38:52.855Z,101770.91
2022-10-08T17:41:20.874Z,101778.56
2022-10-08T17:43:49.171Z,101786.06
2022-10-08T17:46:19.320Z,101794.34
2022-10-08T17:48:46.664Z,101791.88
2022-10-08T17:51:17.234Z,101805.81
2022-10-08T17:53:44.765Z,101799.69
2022-10-08T17:56:13.371Z,101804.69
2022-10-08T17:58:40.530Z,101803.44
2022-10-08T18:01:12.996Z,101808.09
2022-10-08T18:03:41.579Z,101800.91
2022-10-08T18:06:09.956Z,101806.50
2022-10-08T18:08:36.683Z,101798.47
2022-10-08T18:11:05.297Z,101797.41
2022-10-08T18:13:32.537Z,101791.19
2022-10-08T18:16:06.962Z,101785.06
2022-10-08T18:18:34.611Z,101785.31
2022-10-08T18:21:02.353Z,101790.06
2022-10-08T18:23:30.828Z,101777.16
2022-10-08T18:26:15.712Z,101771.09
2022-10-08T18:28:42.829Z,101777.25
2022-10-08T18:31:11.992Z,101767.75
2022-10-08T18:33:40.470Z,101766.19
2022-10-08T18:36:13.379Z,101761.81
2022-10-08T18:38:41.989Z,101754.88
2022-10-08T18:41:15.905Z,101747.00
2022-10-08T18:43:43.502Z,101746.09
2022-10-08T18:46:10.982Z,101742.88
2022-10-08T18:48:38.780Z,101742.94
2022-10-08T18:51:07.026Z,101737.59
2022-10-08T18:53:39.770Z,101736.72
2022-10-08T18:56:09.206Z,101737.06
2022-10-08T18:58:38.076Z,101738.25
2022-10-08T19:01:06.337Z,101727.34
2022-10-08T19:03:33.512Z,101726.38
2022-10-08T19:06:00.433Z,101720.81
2022-10-08T19:08:27.079Z,101718.00
2022-10-08T19:10:53.959Z,101714.81
2022-10-08T19:13:20.798Z,101706.63
2022-10-08T19:15:47.623Z,101698.25
2022-10-08T19:18:14.523Z,101695.38
2022-10-08T19:20:41.232Z,101680.41
2022-10-08T19:23:08.068Z,101665.78
2022-10-08T19:25:35.307Z,101674.53
2022-10-08T19:28:01.997Z,101659.84
2022-10-08T19:30:34.074Z,101664.63
2022-10-08T19:33:01.201Z,101655.38
2022-10-08T19:35:28.287Z,101644.19
2022-10-08T19:37:55.130Z,101636.06
2022-10-08T19:40:22.187Z,101628.94
2022-10-08T19:42:49.132Z,101628.00
2022-10-08T19:45:16.529Z,101613.56
2022-10-08T19:47:43.303Z,101616.34
2022-10-08T19:50:10.433Z,101615.31
2022-10-08T19:52:38.488Z,101600.81
2022-10-08T19:55:06.086Z,101597.75
2022-10-08T19:57:32.773Z,101589.63
2022-10-08T19:59:59.550Z,101590.34
2022-10-08T20:02:26.256Z,101576.84
2022-10-08T20:04:53.199Z,101573.97
2022-10-08T20:07:20.053Z,101576.06
2022-10-08T20:09:47.054Z,101572.56
2022-10-08T20:12:13.848Z,101577.03
2022-10-08T20:14:40.509Z,101572.19
2022-10-08T20:17:08.135Z,101577.72
2022-10-08T20:19:35.264Z,101561.34
2022-10-08T20:22:02.104Z,101553.31
2022-10-08T20:24:28.900Z,101549.88
2022-10-08T20:26:55.553Z,101553.56
2022-10-08T20:29:26.258Z,101546.47
2022-10-08T20:31:55.794Z,101546.56
2022-10-08T20:34:27.132Z,101544.53
2022-10-08T20:36:53.837Z,101550.28
2022-10-08T20:39:22.101Z,101537.88
2022-10-08T20:41:49.526Z,101546.41
2022-10-08T20:44:16.543Z,101549.63
2022-10-08T20:46:44.140Z,101549.25
2022-10-08T20:49:13.155Z,101543.69
2022-10-08T20:51:41.409Z,101542.38
2022-10-08T20:54:10.154Z,101532.50
2022-10-08T20:56:40.256Z,101532.56
2022-10-08T20:59:08.669Z,101534.41
2022-10-08T21:01:38.266Z,101531.63
2022-10-08T21:04:06.582Z,101526.78
2022-10-08T21:06:39.019Z,101523.41
2022-10-08T21:09:06.764Z,101527.16
2022-10-08T21:11:34.838Z,101527.19
2022-10-08T21:14:03.634Z,101527.38
2022-10-08T21:16:33.530Z,101523.78
2022-10-08T21:19:02.396Z,101515.75
2022-10-08T21:21:30.973Z,101509.19
2022-10-08T21:23:58.342Z,101517.59
2022-10-08T21:26:30.321Z,101550.16
2022-10-08T21:29:00.124Z,101547.66
2022-10-08T21:31:28.537Z,101538.06
2022-10-08T21:33:56.279Z,101530.56
2022-10-08T21:36:28.976Z,101532.31
2022-10-08T21:38:56.002Z,101524.19
2022-10-08T21:41:24.564Z,101524.91
2022-10-08T21:43:53.209Z,101506.59
2022-10-08T21:46:26.219Z,101515.50
2022-10-08T21:48:56.594Z,101509.81
2022-10-08T21:51:23.867Z,101492.22
2022-10-08T21:53:53.206Z,101498.81
2022-10-08T21:56:22.900Z,101494.91
2022-10-08T21:58:52.852Z,101497.69
2022-10-08T22:01:22.580Z,101494.97
2022-10-08T22:03:53.494Z,101489.72
2022-10-08T22:06:20.200Z,101495.50
2022-10-08T22:08:47.176Z,101491.94
2022-10-08T22:11:13.940Z,101488.25
2022-10-08T22:13:40.801Z,101501.00
2022-10-08T22:16:08.789Z,101498.28
2022-10-08T22:18:35.872Z,101499.66
2022-10-08T22:21:11.518Z,101503.09
2022-10-08T22:23:38.240Z,101503.66
2022-10-08T22:26:08.590Z,101488.75
2022-10-08T22:28:35.702Z,101496.22
2022-10-08T22:31:04.398Z,101506.25
2022-10-08T22:33:32.162Z,101492.91
2022-10-08T22:36:08.718Z,101473.22
2022-10-08T22:38:36.985Z,101456.06
2022-10-08T22:41:05.587Z,101448.19
2022-10-08T22:43:32.397Z,101449.56
2022-10-08T22:46:05.995Z,101447.41
2022-10-08T22:48:33.233Z,101449.03
2022-10-08T22:51:05.529Z,101449.56
2022-10-08T22:53:32.742Z,101456.13
2022-10-08T22:55:59.884Z,101458.94
2022-10-08T22:58:26.554Z,101459.81
2022-10-08T23:01:01.616Z,101460.25
2022-10-08T23:03:28.825Z,101467.16
2022-10-08T23:06:06.446Z,101460.97
2022-10-08T23:08:34.757Z,101465.50
2022-10-08T23:11:02.841Z,101459.47
2022-10-08T23:13:30.632Z,101463.16
2022-10-08T23:16:05.382Z,101469.41
2022-10-08T23:18:34.417Z,101461.75
2022-10-08T23:21:02.987Z,101468.63
2022-10-08T23:23:30.182Z,101469.25
2022-10-08T23:25:59.500Z,101468.72
2022-10-08T23:28:26.923Z,101479.63
2022-10-08T23:30:54.055Z,101476.31
2022-10-08T23:33:20.915Z,101482.41
2022-10-08T23:35:55.551Z,101486.41
2022-10-08T23:38:23.255Z,101482.69
2022-10-08T23:40:50.969Z,101491.13
2022-10-08T23:43:17.868Z,101493.47
2022-10-08T23:45:44.719Z,101492.84
2022-10-08T23:48:11.524Z,101490.84
2022-10-08T23:50:38.570Z,101484.41
2022-10-08T23:53:05.503Z,101485.03
2022-10-08T23:55:32.144Z,101487.81
2022-10-08T23:57:58.790Z,101492.66
